Time;durP1;ratioP1;P1;durP2;ratioP2;P2;SDS_P1;SDS_P2;PMS_P1;PMS_P2;Temp;Humidity;BMP_temperature;BMP_pressure;BME280_temperature;BME280_humidity;BME280_pressure;Samples;Min_cycle;Max_cycle;Signal;HPM_P1;HPM_P2
2022/09/29 00:01:01;;;;;;;384.17;62.53;;;;;;;;;;5045779;28;20036;-59
2022/09/29 00:03:27;;;;;;;293.10;56.95;;;;;;;;;;5046342;28;20049;-59
2022/09/29 00:05:54;;;;;;;304.25;55.50;;;;;;;;;;5045980;28;20672;-58
2022/09/29 00:08:22;;;;;;;244.15;52.53;;;;;;;;;;5045472;28;20554;-58
2022/09/29 00:10:49;;;;;;;303.15;56.00;;;;;;;;;;5045518;28;20505;-58
2022/09/29 00:13:15;;;;;;;286.13;52.65;;;;;;;;;;5045537;28;20040;-58
2022/09/29 00:15:42;;;;;;;422.30;64.15;;;;;;;;;;5045275;28;20040;-57
2022/09/29 00:18:10;;;;;;;299.17;56.17;;;;;;;;;;5045624;28;20429;-59
2022/09/29 00:20:40;;;;;;;284.17;55.85;;;;;;;;;;5048150;28;20106;-59
2022/09/29 00:23:06;;;;;;;286.52;55.28;;;;;;;;;;5047808;28;20508;-58
2022/09/29 00:25:33;;;;;;;307.63;58.95;;;;;;;;;;5045346;28;20037;-58
2022/09/29 00:27:59;;;;;;;332.15;61.95;;;;;;;;;;5045732;28;20049;-58
2022/09/29 00:30:26;;;;;;;245.02;55.08;;;;;;;;;;5045235;28;20040;-58
2022/09/29 00:32:53;;;;;;;280.05;59.17;;;;;;;;;;5046044;28;20095;-58
2022/09/29 00:35:19;;;;;;;302.67;59.08;;;;;;;;;;5050265;28;20037;-58
2022/09/29 00:37:46;;;;;;;303.60;62.53;;;;;;;;;;5044531;28;20040;-58
2022/09/29 00:40:12;;;;;;;305.67;63.03;;;;;;;;;;5045286;28;20033;-59
2022/09/29 00:42:39;;;;;;;291.58;60.85;;;;;;;;;;5044832;28;20051;-58
2022/09/29 00:45:24;;;;;;;311.40;64.10;;;;;;;;;;5045441;28;20044;-58
2022/09/29 00:48:11;;;;;;;296.52;61.75;;;;;;;;;;5045828;28;20037;-61
2022/09/29 00:50:43;;;;;;;282.58;61.70;;;;;;;;;;5046066;28;20095;-62
2022/09/29 00:53:11;;;;;;;273.35;62.60;;;;;;;;;;5048015;28;20049;-59
2022/09/29 00:55:44;;;;;;;303.88;63.90;;;;;;;;;;5044845;28;20041;-59
2022/09/29 00:58:17;;;;;;;270.17;61.45;;;;;;;;;;5044802;28;20045;-59
2022/09/29 01:00:43;;;;;;;244.95;59.75;;;;;;;;;;5045237;28;20687;-58
2022/09/29 01:03:15;;;;;;;243.27;60.60;;;;;;;;;;5044981;28;20044;-58
2022/09/29 01:05:43;;;;;;;274.52;63.38;;;;;;;;;;5046974;28;20052;-58
2022/09/29 01:08:12;;;;;;;260.92;61.03;;;;;;;;;;5047659;28;20047;-59
2022/09/29 01:10:40;;;;;;;253.60;60.58;;;;;;;;;;5044579;28;20052;-61
2022/09/29 01:13:06;;;;;;;249.80;58.20;;;;;;;;;;5044448;28;20048;-60
2022/09/29 01:15:33;;;;;;;268.17;60.88;;;;;;;;;;5044576;28;20090;-60
2022/09/29 01:18:01;;;;;;;249.50;57.05;;;;;;;;;;5044403;28;20053;-60
2022/09/29 01:20:32;;;;;;;284.27;62.40;;;;;;;;;;5048132;28;20064;-61
2022/09/29 01:23:10;;;;;;;248.57;57.15;;;;;;;;;;5047952;28;20037;-61
2022/09/29 01:25:51;;;;;;;270.85;60.40;;;;;;;;;;5044213;28;20044;-64
2022/09/29 01:28:22;;;;;;;208.98;53.35;;;;;;;;;;5044163;28;20694;-63
2022/09/29 01:30:52;;;;;;;238.40;57.45;;;;;;;;;;5044320;28;20071;-58
2022/09/29 01:33:21;;;;;;;212.98;54.40;;;;;;;;;;5044409;28;20036;-59
2022/09/29 01:35:57;;;;;;;236.23;55.85;;;;;;;;;;5045382;28;20048;-59
2022/09/29 01:38:31;;;;;;;277.58;60.72;;;;;;;;;;5044550;28;20052;-59
2022/09/29 01:41:04;;;;;;;249.20;56.67;;;;;;;;;;5045280;28;20029;-59
2022/09/29 01:43:30;;;;;;;;;;;;;;;;;;5044488;28;20049;-58
2022/09/29 01:46:10;;;;;;;244.95;56.15;;;;;;;;;;5043978;28;19925;-58
2022/09/29 01:48:43;;;;;;;205.20;52.28;;;;;;;;;;5044083;28;20040;-60
2022/09/29 01:51:16;;;;;;;206.70;52.05;;;;;;;;;;5044162;28;20045;-61
2022/09/29 01:53:50;;;;;;;248.38;55.40;;;;;;;;;;5045543;28;20067;-60
2022/09/29 01:56:24;;;;;;;224.70;52.65;;;;;;;;;;5047816;28;20040;-61
2022/09/29 01:58:56;;;;;;;227.75;52.15;;;;;;;;;;5043888;28;20091;-58
2022/09/29 02:01:26;;;;;;;190.35;40.85;;;;;;;;;;5044022;28;20567;-58
2022/09/29 02:03:59;;;;;;;227.85;42.05;;;;;;;;;;5043647;28;20052;-59
2022/09/29 02:06:39;;;;;;;211.73;41.58;;;;;;;;;;5032182;28;20045;-59
2022/09/29 02:09:11;;;;;;;219.82;43.58;;;;;;;;;;5043560;28;20084;-59
2022/09/29 02:11:39;;;;;;;209.80;42.50;;;;;;;;;;5046514;28;20540;-60
2022/09/29 02:14:11;;;;;;;223.10;42.78;;;;;;;;;;5046049;28;20053;-60
2022/09/29 02:16:41;;;;;;;201.65;41.70;;;;;;;;;;5043742;28;20041;-60
2022/09/29 02:19:12;;;;;;;180.57;40.47;;;;;;;;;;5047774;28;20041;-58
2022/09/29 02:21:38;;;;;;;213.65;42.28;;;;;;;;;;5043608;28;20669;-57
2022/09/29 02:24:05;;;;;;;209.00;40.08;;;;;;;;;;5043098;28;20044;-58
2022/09/29 02:26:36;;;;;;;210.00;41.33;;;;;;;;;;5047272;28;20052;-58
2022/09/29 02:29:03;;;;;;;200.38;41.15;;;;;;;;;;5048039;28;20079;-59
2022/09/29 02:31:31;;;;;;;202.60;39.78;;;;;;;;;;5047012;28;20067;-59
2022/09/29 02:33:58;;;;;;;220.00;41.38;;;;;;;;;;5047482;28;20508;-59
2022/09/29 02:36:41;;;;;;;178.90;40.20;;;;;;;;;;5047555;28;20447;-60
2022/09/29 02:39:22;;;;;;;190.70;39.80;;;;;;;;;;5047089;28;20421;-60
2022/09/29 02:42:07;;;;;;;251.07;43.92;;;;;;;;;;5048354;28;20079;-59
2022/09/29 02:44:56;;;;;;;218.55;41.75;;;;;;;;;;5048299;28;20049;-57
2022/09/29 02:47:54;;;;;;;181.68;37.67;;;;;;;;;;5047643;28;20056;-56
2022/09/29 02:50:20;;;;;;;195.98;40.70;;;;;;;;;;5047448;28;20098;-57
2022/09/29 02:53:05;;;;;;;183.95;37.60;;;;;;;;;;5046853;28;20040;-59
2022/09/29 02:55:50;;;;;;;190.45;38.58;;;;;;;;;;5047369;28;20044;-59
2022/09/29 02:58:30;;;;;;;207.85;40.78;;;;;;;;;;5047132;28;20529;-59
2022/09/29 03:00:58;;;;;;;184.30;38.20;;;;;;;;;;5047030;28;20032;-59
2022/09/29 03:03:25;;;;;;;187.95;38.03;;;;;;;;;;5047404;28;20079;-59
2022/09/29 03:05:51;;;;;;;181.43;35.47;;;;;;;;;;5047682;28;20047;-58
2022/09/29 03:08:18;;;;;;;173.43;34.63;;;;;;;;;;5050453;28;20048;-60
2022/09/29 03:10:44;;;;;;;190.43;37.45;;;;;;;;;;5047181;28;20056;-57
2022/09/29 03:13:11;;;;;;;177.57;35.20;;;;;;;;;;5046822;28;20047;-57
2022/09/29 03:15:37;;;;;;;178.23;36.58;;;;;;;;;;5046836;28;20041;-57
2022/09/29 03:18:04;;;;;;;180.18;34.47;;;;;;;;;;5046833;28;20033;-56
2022/09/29 03:20:35;;;;;;;164.43;31.75;;;;;;;;;;5050147;28;20049;-57
2022/09/29 03:23:01;;;;;;;189.52;35.92;;;;;;;;;;5048152;28;20048;-57
2022/09/29 03:25:28;;;;;;;179.80;35.22;;;;;;;;;;5050809;28;20052;-57
2022/09/29 03:27:55;;;;;;;182.10;36.67;;;;;;;;;;5046576;28;20048;-57
2022/09/29 03:30:22;;;;;;;227.45;40.17;;;;;;;;;;5046479;28;20068;-57
2022/09/29 03:32:49;;;;;;;213.18;41.78;;;;;;;;;;5047977;28;20137;-58
2022/09/29 03:35:15;;;;;;;219.73;42.47;;;;;;;;;;5050223;28;20037;-57
2022/09/29 03:37:42;;;;;;;233.63;43.47;;;;;;;;;;5045938;28;20050;-57
2022/09/29 03:40:08;;;;;;;223.65;42.70;;;;;;;;;;5040038;28;20071;-57
2022/09/29 03:42:35;;;;;;;239.27;44.17;;;;;;;;;;5045945;28;20037;-57
2022/09/29 03:45:02;;;;;;;248.65;44.03;;;;;;;;;;5046276;28;20482;-56
2022/09/29 03:47:28;;;;;;;235.02;42.40;;;;;;;;;;5051232;28;20033;-57
2022/09/29 03:49:55;;;;;;;267.98;44.15;;;;;;;;;;5046314;28;20049;-57
2022/09/29 03:52:21;;;;;;;245.30;42.03;;;;;;;;;;5045361;28;20041;-62
2022/09/29 03:54:48;;;;;;;250.40;45.08;;;;;;;;;;5045832;28;20110;-60
2022/09/29 03:57:14;;;;;;;239.18;42.80;;;;;;;;;;5046207;28;20037;-59
2022/09/29 03:59:40;;;;;;;294.08;47.38;;;;;;;;;;5048830;28;20041;-61
2022/09/29 04:02:11;;;;;;;229.05;41.85;;;;;;;;;;5049155;28;20041;-60
2022/09/29 04:04:37;;;;;;;199.40;41.90;;;;;;;;;;5048000;28;20037;-60
2022/09/29 04:07:04;;;;;;;257.17;44.03;;;;;;;;;;5045456;28;20036;-59
2022/09/29 04:09:30;;;;;;;229.73;43.22;;;;;;;;;;5046120;28;20044;-60
2022/09/29 04:11:57;;;;;;;285.15;44.80;;;;;;;;;;5046006;28;20065;-60
2022/09/29 04:14:23;;;;;;;236.48;42.35;;;;;;;;;;5050594;28;20095;-60
2022/09/29 04:16:50;;;;;;;248.25;42.83;;;;;;;;;;5045820;28;20066;-60
2022/09/29 04:19:16;;;;;;;207.50;41.15;;;;;;;;;;5045559;28;20041;-59
2022/09/29 04:21:43;;;;;;;287.58;39.97;;;;;;;;;;5045125;28;20037;-59
2022/09/29 04:24:09;;;;;;;217.15;41.10;;;;;;;;;;5045240;28;20037;-59
2022/09/29 04:26:36;;;;;;;235.55;41.90;;;;;;;;;;5049170;28;20048;-60
2022/09/29 04:29:02;;;;;;;253.32;43.88;;;;;;;;;;5047006;28;20055;-60
2022/09/29 04:31:29;;;;;;;235.23;42.80;;;;;;;;;;5045393;28;20041;-61
2022/09/29 04:33:55;;;;;;;315.60;47.30;;;;;;;;;;5045003;28;20052;-58
2022/09/29 04:36:22;;;;;;;232.48;42.50;;;;;;;;;;5032633;28;20036;-58
2022/09/29 04:38:50;;;;;;;237.43;42.40;;;;;;;;;;5046544;28;20041;-58
2022/09/29 04:41:17;;;;;;;249.80;42.75;;;;;;;;;;5049071;28;20051;-61
2022/09/29 04:43:43;;;;;;;256.08;44.20;;;;;;;;;;5045124;28;20052;-60
2022/09/29 04:46:10;;;;;;;223.32;41.65;;;;;;;;;;5045040;28;20401;-58
2022/09/29 04:48:37;;;;;;;249.55;44.88;;;;;;;;;;5044650;28;20540;-59
2022/09/29 04:51:04;;;;;;;282.77;46.47;;;;;;;;;;5044788;28;20042;-59
2022/09/29 04:53:30;;;;;;;285.40;46.30;;;;;;;;;;5048449;28;20107;-58
2022/09/29 04:55:57;;;;;;;269.67;44.53;;;;;;;;;;5046994;28;20048;-58
2022/09/29 04:58:23;;;;;;;252.80;42.97;;;;;;;;;;5048916;28;20049;-58
2022/09/29 05:00:50;;;;;;;287.65;46.28;;;;;;;;;;5049119;28;20039;-57
2022/09/29 05:03:17;;;;;;;262.70;46.10;;;;;;;;;;5044399;28;20414;-58
2022/09/29 05:05:43;;;;;;;316.33;48.83;;;;;;;;;;5047047;28;20033;-57
2022/09/29 05:08:10;;;;;;;247.60;44.03;;;;;;;;;;5046828;28;20049;-62
2022/09/29 05:10:36;;;;;;;259.90;44.03;;;;;;;;;;5044712;28;20505;-63
2022/09/29 05:13:03;;;;;;;277.30;46.55;;;;;;;;;;5044384;28;20045;-59
2022/09/29 05:15:29;;;;;;;278.35;46.25;;;;;;;;;;5044325;28;20037;-60
2022/09/29 05:17:59;;;;;;;258.55;44.58;;;;;;;;;;5045056;28;20043;-59
2022/09/29 05:20:26;;;;;;;257.75;42.78;;;;;;;;;;5045066;28;20450;-60
2022/09/29 05:23:01;;;;;;;273.00;43.55;;;;;;;;;;5045414;28;20072;-59
2022/09/29 05:25:28;;;;;;;257.23;44.60;;;;;;;;;;5044482;28;20110;-60
2022/09/29 05:27:56;;;;;;;251.52;42.60;;;;;;;;;;5044339;28;20049;-60
2022/09/29 05:30:22;;;;;;;242.93;40.95;;;;;;;;;;5044608;28;20215;-59
2022/09/29 05:32:49;;;;;;;285.50;45.40;;;;;;;;;;5045615;28;20037;-59
2022/09/29 05:35:21;;;;;;;269.88;44.22;;;;;;;;;;5048345;28;20405;-60
2022/09/29 05:37:47;;;;;;;266.83;42.03;;;;;;;;;;5043942;28;20033;-60
2022/09/29 05:40:13;;;;;;;269.95;45.60;;;;;;;;;;5048484;28;20049;-60
2022/09/29 05:42:40;;;;;;;249.35;42.30;;;;;;;;;;5044184;28;20488;-59
2022/09/29 05:45:09;;;;;;;247.02;42.58;;;;;;;;;;5044210;28;20105;-59
2022/09/29 05:47:35;;;;;;;316.45;47.75;;;;;;;;;;5047605;28;20040;-59
2022/09/29 05:50:02;;;;;;;276.02;45.25;;;;;;;;;;5047567;28;20044;-60
2022/09/29 05:52:29;;;;;;;245.70;43.80;;;;;;;;;;5043748;28;20045;-59
2022/09/29 05:54:55;;;;;;;278.33;46.00;;;;;;;;;;5044040;28;20069;-59
2022/09/29 05:57:21;;;;;;;285.05;46.05;;;;;;;;;;5043811;28;20063;-59
2022/09/29 05:59:48;;;;;;;283.23;43.30;;;;;;;;;;5045271;28;20052;-59
2022/09/29 06:02:15;;;;;;;238.30;41.05;;;;;;;;;;5047018;28;20051;-59
2022/09/29 06:04:42;;;;;;;260.77;41.53;;;;;;;;;;5043907;28;20466;-59
2022/09/29 06:07:09;;;;;;;258.67;43.38;;;;;;;;;;5043017;28;20071;-59
2022/09/29 06:09:35;;;;;;;251.95;43.13;;;;;;;;;;5044120;28;20039;-59
2022/09/29 06:12:02;;;;;;;257.23;41.80;;;;;;;;;;5043550;28;20045;-59
2022/09/29 06:14:29;;;;;;;251.57;42.22;;;;;;;;;;5048480;28;20618;-58
2022/09/29 06:16:55;;;;;;;267.05;41.97;;;;;;;;;;5043528;28;20383;-59
2022/09/29 06:19:22;;;;;;;269.48;44.25;;;;;;;;;;5043664;28;20406;-59
2022/09/29 06:21:48;;;;;;;314.08;46.95;;;;;;;;;;5042613;28;20041;-59
2022/09/29 06:24:15;;;;;;;249.32;42.08;;;;;;;;;;5042772;28;20030;-59
2022/09/29 06:26:41;;;;;;;265.65;42.17;;;;;;;;;;5046055;28;20456;-59
2022/09/29 06:29:08;;;;;;;241.70;41.25;;;;;;;;;;5045295;28;20041;-59
2022/09/29 06:31:34;;;;;;;259.50;42.13;;;;;;;;;;5043367;28;20044;-59
2022/09/29 06:34:02;;;;;;;252.20;41.35;;;;;;;;;;5042975;28;20053;-59
2022/09/29 06:39:15;;;;;;;286.08;43.78;;;;;;;;;;5043481;28;20430;-60
2022/09/29 06:41:51;;;;;;;268.00;42.08;;;;;;;;;;5045889;28;20037;-59
2022/09/29 06:44:17;;;;;;;260.65;40.13;;;;;;;;;;5046820;28;20075;-59
2022/09/29 06:46:44;;;;;;;250.73;42.88;;;;;;;;;;5043254;28;20048;-59
2022/09/29 06:49:11;;;;;;;244.25;42.00;;;;;;;;;;5042988;28;20166;-58
2022/09/29 06:51:38;;;;;;;261.92;40.85;;;;;;;;;;5042745;28;20047;-59
2022/09/29 06:54:19;;;;;;;242.23;41.35;;;;;;;;;;5043148;28;20109;-59
2022/09/29 06:56:49;;;;;;;284.42;43.00;;;;;;;;;;5045833;28;20148;-58
2022/09/29 06:59:16;;;;;;;257.13;39.92;;;;;;;;;;5047028;28;20107;-59
2022/09/29 07:01:43;;;;;;;266.42;42.83;;;;;;;;;;5042926;28;20087;-59
2022/09/29 07:04:09;;;;;;;239.30;39.42;;;;;;;;;;5041979;28;20060;-59
2022/09/29 07:06:36;;;;;;;263.10;42.33;;;;;;;;;;5041921;28;20041;-59
2022/09/29 07:09:02;;;;;;;287.65;44.75;;;;;;;;;;5041691;28;20072;-59
2022/09/29 07:11:29;;;;;;;257.15;41.58;;;;;;;;;;5046475;28;20045;-59
2022/09/29 07:13:55;;;;;;;254.32;42.25;;;;;;;;;;5041530;28;20059;-59
2022/09/29 07:16:22;;;;;;;257.77;42.28;;;;;;;;;;5041883;28;20041;-59
2022/09/29 07:18:50;;;;;;;214.48;38.42;;;;;;;;;;5044562;28;20520;-59
2022/09/29 07:21:17;;;;;;;216.23;38.20;;;;;;;;;;5046926;28;20041;-59
2022/09/29 07:23:44;;;;;;;247.55;41.15;;;;;;;;;;5049192;28;20465;-59
2022/09/29 07:26:11;;;;;;;188.18;36.50;;;;;;;;;;5049574;28;20040;-59
2022/09/29 07:28:38;;;;;;;232.13;39.85;;;;;;;;;;5046670;28;20045;-58
2022/09/29 07:31:06;;;;;;;196.70;37.03;;;;;;;;;;5046350;28;20052;-59
2022/09/29 07:33:41;;;;;;;234.65;39.88;;;;;;;;;;5039849;28;20405;-60
2022/09/29 07:36:08;;;;;;;193.70;35.95;;;;;;;;;;5046921;28;20030;-59
2022/09/29 07:38:34;;;;;;;216.63;38.40;;;;;;;;;;5050621;28;20045;-59
2022/09/29 07:41:02;;;;;;;230.00;38.63;;;;;;;;;;5050762;28;20103;-59
2022/09/29 07:43:29;;;;;;;234.70;40.05;;;;;;;;;;5046517;28;20037;-59
2022/09/29 07:45:56;;;;;;;211.25;36.58;;;;;;;;;;5046113;28;20033;-59
2022/09/29 07:48:22;;;;;;;200.70;36.00;;;;;;;;;;5046476;28;20102;-59
2022/09/29 07:51:05;;;;;;;225.30;38.50;;;;;;;;;;5047579;28;20704;-59
2022/09/29 07:53:32;;;;;;;222.70;37.50;;;;;;;;;;5046950;28;20049;-59
2022/09/29 07:56:06;;;;;;;189.35;36.20;;;;;;;;;;5046337;28;20045;-59
2022/09/29 07:58:32;;;;;;;173.50;32.92;;;;;;;;;;5045981;28;20037;-59
2022/09/29 08:01:00;;;;;;;180.30;34.75;;;;;;;;;;5046400;28;20044;-59
2022/09/29 08:03:28;;;;;;;184.88;35.72;;;;;;;;;;5046125;28;20033;-59
2022/09/29 08:05:56;;;;;;;205.60;36.38;;;;;;;;;;5047069;28;20053;-59
2022/09/29 08:08:23;;;;;;;173.05;36.60;;;;;;;;;;5049855;28;20051;-59
2022/09/29 08:10:50;;;;;;;154.25;37.13;;;;;;;;;;5045997;28;20056;-60
2022/09/29 08:13:19;;;;;;;160.27;35.42;;;;;;;;;;5045758;28;20416;-59
2022/09/29 08:15:45;;;;;;;172.45;34.83;;;;;;;;;;5045324;28;20053;-60
2022/09/29 08:18:12;;;;;;;167.85;33.25;;;;;;;;;;5045597;28;20478;-60
2022/09/29 08:20:38;;;;;;;186.30;35.33;;;;;;;;;;5049295;28;20110;-59
2022/09/29 08:23:05;;;;;;;146.60;30.60;;;;;;;;;;5048880;28;20033;-59
2022/09/29 08:25:34;;;;;;;114.28;29.30;;;;;;;;;;5045821;28;20047;-59
2022/09/29 08:28:00;;;;;;;155.82;32.10;;;;;;;;;;5044798;28;20549;-58
2022/09/29 08:30:27;;;;;;;125.43;29.83;;;;;;;;;;5045629;28;20044;-58
2022/09/29 08:32:54;;;;;;;152.57;31.45;;;;;;;;;;5046991;28;20080;-58
2022/09/29 08:35:20;;;;;;;122.15;30.02;;;;;;;;;;5049092;28;20077;-59
2022/09/29 08:37:47;;;;;;;132.63;29.67;;;;;;;;;;5044814;28;20041;-59
2022/09/29 08:40:15;;;;;;;115.32;28.33;;;;;;;;;;5045374;28;20060;-59
2022/09/29 08:42:51;;;;;;;124.45;30.58;;;;;;;;;;5045369;28;20493;-60
2022/09/29 08:45:25;;;;;;;153.88;31.40;;;;;;;;;;5044987;28;20034;-59
2022/09/29 08:47:55;;;;;;;145.82;31.60;;;;;;;;;;5046803;28;20551;-59
2022/09/29 08:50:28;;;;;;;117.40;29.27;;;;;;;;;;5049193;28;20075;-60
2022/09/29 08:52:58;;;;;;;154.80;30.80;;;;;;;;;;5044825;28;20060;-60
2022/09/29 08:55:24;;;;;;;135.93;30.83;;;;;;;;;;5044937;28;20051;-61
2022/09/29 08:57:56;;;;;;;127.72;29.77;;;;;;;;;;5044551;28;20041;-60
2022/09/29 09:00:29;;;;;;;102.88;29.13;;;;;;;;;;5045364;28;20068;-59
2022/09/29 09:03:14;;;;;;;103.13;27.10;;;;;;;;;;5046432;28;20041;-59
2022/09/29 09:05:47;;;;;;;122.95;29.35;;;;;;;;;;5045181;28;20449;-59
2022/09/29 09:08:19;;;;;;;93.70;27.15;;;;;;;;;;5047456;28;20528;-59
2022/09/29 09:11:02;;;;;;;93.63;26.98;;;;;;;;;;5044618;28;20429;-59
2022/09/29 09:13:40;;;;;;;82.40;24.70;;;;;;;;;;5044661;28;20044;-59
2022/09/29 09:16:10;;;;;;;102.65;27.35;;;;;;;;;;5044693;28;20044;-59
2022/09/29 09:18:36;;;;;;;91.60;25.67;;;;;;;;;;5043724;28;20041;-59
2022/09/29 09:21:08;;;;;;;94.97;25.48;;;;;;;;;;5044998;28;20128;-59
2022/09/29 09:23:46;;;;;;;92.28;23.52;;;;;;;;;;5044710;28;20045;-59
2022/09/29 09:26:13;;;;;;;79.43;23.42;;;;;;;;;;5047160;28;20053;-59
2022/09/29 09:28:42;;;;;;;62.92;21.58;;;;;;;;;;5044919;28;20041;-60
2022/09/29 09:31:08;;;;;;;101.95;24.65;;;;;;;;;;5044221;28;20393;-59
2022/09/29 09:33:38;;;;;;;87.28;22.23;;;;;;;;;;5044359;28;20029;-60
2022/09/29 09:36:07;;;;;;;86.05;21.90;;;;;;;;;;5044252;28;20067;-59
2022/09/29 09:38:52;;;;;;;77.28;21.55;;;;;;;;;;5048721;28;20041;-59
2022/09/29 09:41:21;;;;;;;78.22;22.67;;;;;;;;;;5047543;28;20512;-59
2022/09/29 09:43:50;;;;;;;106.05;23.80;;;;;;;;;;5038279;28;20053;-59
2022/09/29 09:46:25;;;;;;;86.90;22.67;;;;;;;;;;5044582;28;20452;-59
2022/09/29 09:48:59;;;;;;;91.78;22.25;;;;;;;;;;5039023;28;20040;-58
2022/09/29 09:51:31;;;;;;;98.28;22.17;;;;;;;;;;5044500;28;20493;-59
2022/09/29 09:53:59;;;;;;;109.68;21.77;;;;;;;;;;5044508;28;20045;-59
2022/09/29 09:56:25;;;;;;;83.43;20.08;;;;;;;;;;5048550;28;20041;-59
2022/09/29 09:58:55;;;;;;;78.47;19.15;;;;;;;;;;5044036;28;20033;-59
2022/09/29 10:01:22;;;;;;;73.78;18.67;;;;;;;;;;5044126;28;20041;-61
2022/09/29 10:03:48;;;;;;;110.57;20.65;;;;;;;;;;5043826;28;20060;-58
2022/09/29 10:06:15;;;;;;;80.10;17.33;;;;;;;;;;5044149;28;20034;-59
2022/09/29 10:08:41;;;;;;;76.63;17.88;;;;;;;;;;5046923;28;20045;-59
2022/09/29 10:11:27;;;;;;;49.15;15.02;;;;;;;;;;5045812;28;20059;-59
2022/09/29 10:13:57;;;;;;;81.22;17.88;;;;;;;;;;5043784;28;20077;-59
2022/09/29 10:16:32;;;;;;;69.82;18.15;;;;;;;;;;5043607;28;20041;-59
2022/09/29 10:18:59;;;;;;;96.85;17.80;;;;;;;;;;5044205;28;20067;-59
2022/09/29 10:21:37;;;;;;;74.97;17.90;;;;;;;;;;5042289;28;20153;-58
2022/09/29 10:24:06;;;;;;;82.65;18.17;;;;;;;;;;5043504;28;20433;-59
2022/09/29 10:26:36;;;;;;;68.53;17.40;;;;;;;;;;5048476;28;20414;-58
2022/09/29 10:29:16;;;;;;;69.82;16.42;;;;;;;;;;5044496;28;20052;-60
2022/09/29 10:31:43;;;;;;;105.28;18.58;;;;;;;;;;5043119;28;20049;-61
2022/09/29 10:34:12;;;;;;;65.07;16.58;;;;;;;;;;5043539;28;20037;-61
2022/09/29 10:36:52;;;;;;;78.88;16.58;;;;;;;;;;5043608;28;20052;-61
2022/09/29 10:39:29;;;;;;;70.90;15.68;;;;;;;;;;5043227;28;20061;-60
2022/09/29 10:41:55;;;;;;;113.20;18.42;;;;;;;;;;5044486;28;20049;-61
2022/09/29 10:44:22;;;;;;;72.85;16.92;;;;;;;;;;5047151;28;20048;-61
2022/09/29 10:46:53;;;;;;;62.28;16.00;;;;;;;;;;5043483;28;20122;-60
2022/09/29 10:49:21;;;;;;;70.32;17.23;;;;;;;;;;5047115;28;20480;-61
2022/09/29 10:51:59;;;;;;;106.35;18.63;;;;;;;;;;5043172;28;20047;-61
2022/09/29 10:54:27;;;;;;;64.00;18.92;;;;;;;;;;5046245;28;20136;-60
2022/09/29 10:56:54;;;;;;;119.78;21.30;;;;;;;;;;5048908;28;20041;-60
2022/09/29 10:59:22;;;;;;;80.95;19.98;;;;;;;;;;5050846;28;20048;-60
2022/09/29 11:01:50;;;;;;;97.63;21.25;;;;;;;;;;5046689;28;20044;-61
2022/09/29 11:04:17;;;;;;;80.88;20.40;;;;;;;;;;5046903;28;20047;-60
2022/09/29 11:06:43;;;;;;;69.15;19.90;;;;;;;;;;5046769;28;20051;-61
2022/09/29 11:09:14;;;;;;;56.85;18.85;;;;;;;;;;5047058;28;20047;-60
2022/09/29 11:11:47;;;;;;;88.22;19.83;;;;;;;;;;5050402;28;20057;-60
2022/09/29 11:14:28;;;;;;;64.90;19.00;;;;;;;;;;5052023;28;20182;-60
2022/09/29 11:16:56;;;;;;;70.03;19.35;;;;;;;;;;5046906;28;20036;-60
2022/09/29 11:19:23;;;;;;;73.78;20.73;;;;;;;;;;5046896;28;20041;-60
2022/09/29 11:21:50;;;;;;;99.80;20.20;;;;;;;;;;5046094;28;20033;-60
2022/09/29 11:24:31;;;;;;;69.35;17.00;;;;;;;;;;5046583;28;20033;-60
2022/09/29 11:27:16;;;;;;;58.88;17.23;;;;;;;;;;5043100;28;20063;-61
2022/09/29 11:29:43;;;;;;;81.22;19.55;;;;;;;;;;5047141;28;20052;-60
2022/09/29 11:32:13;;;;;;;75.22;18.58;;;;;;;;;;5048773;28;20489;-61
2022/09/29 11:35:05;;;;;;;66.10;16.55;;;;;;;;;;5046602;28;20098;-60
2022/09/29 11:37:38;;;;;;;59.95;19.23;;;;;;;;;;5042961;28;20110;-60
2022/09/29 11:40:18;;;;;;;67.30;18.23;;;;;;;;;;5046827;28;20048;-60
2022/09/29 11:43:03;;;;;;;50.92;16.73;;;;;;;;;;5046800;28;20037;-60
2022/09/29 11:45:52;;;;;;;73.30;17.90;;;;;;;;;;5046804;28;20501;-60
2022/09/29 11:48:22;;;;;;;77.40;17.58;;;;;;;;;;5046141;28;20048;-61
2022/09/29 11:51:01;;;;;;;91.07;19.33;;;;;;;;;;5048229;28;20056;-60
2022/09/29 11:53:37;;;;;;;68.80;16.65;;;;;;;;;;5050456;28;20472;-60
2022/09/29 11:56:16;;;;;;;73.90;18.10;;;;;;;;;;5046981;28;20053;-60
2022/09/29 11:58:44;;;;;;;65.60;16.55;;;;;;;;;;5046274;28;20124;-60
2022/09/29 12:01:20;;;;;;;66.18;15.70;;;;;;;;;;5046260;28;20045;-60
2022/09/29 12:03:49;;;;;;;137.07;18.38;;;;;;;;;;5045601;28;20371;-60
2022/09/29 12:06:32;;;;;;;110.10;18.17;;;;;;;;;;5045283;28;20053;-60
2022/09/29 12:09:07;;;;;;;134.27;19.63;;;;;;;;;;5046659;28;20053;-61
2022/09/29 12:11:37;;;;;;;59.53;15.45;;;;;;;;;;5046883;28;20067;-60
2022/09/29 12:14:29;;;;;;;60.55;17.42;;;;;;;;;;5049853;28;20037;-60
2022/09/29 12:16:58;;;;;;;69.13;15.90;;;;;;;;;;5045583;28;20661;-61
2022/09/29 12:19:27;;;;;;;63.47;17.05;;;;;;;;;;5039697;28;20047;-61
2022/09/29 12:21:56;;;;;;;138.68;20.85;;;;;;;;;;5045019;28;20132;-60
2022/09/29 12:24:33;;;;;;;57.50;14.35;;;;;;;;;;5045705;28;20536;-61
2022/09/29 12:27:03;;;;;;;70.07;15.63;;;;;;;;;;5046591;28;20041;-60
2022/09/29 12:29:32;;;;;;;62.28;14.00;;;;;;;;;;5050184;28;20041;-60
2022/09/29 12:32:01;;;;;;;71.60;14.70;;;;;;;;;;5044745;28;20055;-60
2022/09/29 12:34:31;;;;;;;57.92;13.00;;;;;;;;;;5045332;28;20060;-61
2022/09/29 12:37:04;;;;;;;81.28;14.45;;;;;;;;;;5045049;28;20032;-60
2022/09/29 12:39:38;;;;;;;64.20;14.25;;;;;;;;;;5045556;28;20378;-60
2022/09/29 12:42:04;;;;;;;88.05;16.98;;;;;;;;;;5045746;28;20034;-61
2022/09/29 12:44:42;;;;;;;64.07;14.27;;;;;;;;;;5049985;28;20041;-60
2022/09/29 12:47:14;;;;;;;66.68;15.00;;;;;;;;;;5046722;28;20087;-60
2022/09/29 12:49:48;;;;;;;94.00;15.48;;;;;;;;;;5044859;28;20068;-60
2022/09/29 12:52:19;;;;;;;84.93;16.33;;;;;;;;;;5044783;28;20401;-61
2022/09/29 12:54:48;;;;;;;55.22;14.90;;;;;;;;;;5044929;28;20045;-60
2022/09/29 12:57:16;;;;;;;63.20;14.65;;;;;;;;;;5045460;28;20037;-61
2022/09/29 13:00:05;;;;;;;77.43;16.48;;;;;;;;;;5048264;28;20052;-60
2022/09/29 13:02:31;;;;;;;66.63;17.20;;;;;;;;;;5049696;28;20087;-61
2022/09/29 13:04:58;;;;;;;81.63;17.70;;;;;;;;;;5044639;28;20537;-60
2022/09/29 13:07:27;;;;;;;67.35;16.88;;;;;;;;;;5044652;28;20048;-60
2022/09/29 13:09:54;;;;;;;67.82;18.00;;;;;;;;;;5044618;28;20186;-60
2022/09/29 13:12:26;;;;;;;72.28;17.67;;;;;;;;;;5044869;28;20490;-60
2022/09/29 13:15:11;;;;;;;65.05;16.42;;;;;;;;;;5046824;28;20452;-61
2022/09/29 13:17:48;;;;;;;62.40;16.25;;;;;;;;;;5044592;28;20045;-61
2022/09/29 13:20:23;;;;;;;67.20;15.73;;;;;;;;;;5049139;28;20128;-61
2022/09/29 13:23:12;;;;;;;65.95;14.38;;;;;;;;;;5044278;28;20044;-61
2022/09/29 13:25:42;;;;;;;73.22;14.90;;;;;;;;;;5045468;28;20049;-61
2022/09/29 13:28:24;;;;;;;60.22;14.30;;;;;;;;;;5044881;28;20041;-59
2022/09/29 13:30:52;;;;;;;63.75;14.80;;;;;;;;;;5044468;28;20048;-58
2022/09/29 13:33:20;;;;;;;52.75;12.65;;;;;;;;;;5044229;28;20474;-59
2022/09/29 13:35:48;;;;;;;86.78;15.48;;;;;;;;;;5047129;28;20043;-59
2022/09/29 13:38:16;;;;;;;55.05;14.07;;;;;;;;;;5046315;28;20041;-58
2022/09/29 13:41:02;;;;;;;59.13;14.40;;;;;;;;;;5044523;28;20045;-59
2022/09/29 13:43:55;;;;;;;76.47;14.70;;;;;;;;;;5044803;28;20071;-59
2022/09/29 13:46:30;;;;;;;58.15;14.55;;;;;;;;;;5042889;28;20057;-59
2022/09/29 13:49:12;;;;;;;67.80;15.57;;;;;;;;;;5044377;28;20136;-59
2022/09/29 13:51:48;;;;;;;81.22;14.65;;;;;;;;;;5044318;28;20040;-59
2022/09/29 13:54:21;;;;;;;58.75;12.82;;;;;;;;;;5044416;28;20424;-59
2022/09/29 13:56:57;;;;;;;67.67;13.77;;;;;;;;;;5047448;28;20049;-59
2022/09/29 13:59:24;;;;;;;76.22;14.77;;;;;;;;;;5047683;28;20373;-59
2022/09/29 14:01:51;;;;;;;85.03;15.00;;;;;;;;;;5043882;28;20049;-59
2022/09/29 14:04:36;;;;;;;67.55;14.23;;;;;;;;;;5043900;28;20456;-58
2022/09/29 14:07:04;;;;;;;111.97;17.75;;;;;;;;;;5043342;28;20061;-59
2022/09/29 14:09:33;;;;;;;66.18;16.45;;;;;;;;;;5044128;28;20034;-59
2022/09/29 14:12:01;;;;;;;82.93;15.13;;;;;;;;;;5044753;28;20061;-58
2022/09/29 14:14:32;;;;;;;82.68;16.65;;;;;;;;;;5047894;28;20048;-59
2022/09/29 14:17:00;;;;;;;84.28;17.48;;;;;;;;;;5043538;28;20123;-58
2022/09/29 14:19:29;;;;;;;69.13;16.40;;;;;;;;;;5043917;28;20128;-59
2022/09/29 14:21:57;;;;;;;93.85;17.35;;;;;;;;;;5043066;28;20413;-59
2022/09/29 14:24:33;;;;;;;84.00;14.98;;;;;;;;;;5043487;28;20406;-59
2022/09/29 14:27:18;;;;;;;78.30;15.00;;;;;;;;;;5045149;28;20516;-58
2022/09/29 14:29:49;;;;;;;104.05;17.50;;;;;;;;;;5047934;28;20045;-59